createdAt,value
2023-03-23T15:57:58.415Z,6.10
2023-03-23T16:00:28.181Z,5.80
2023-03-23T16:03:02.571Z,5.22
2023-03-23T16:05:29.952Z,4.38
2023-03-23T16:07:58.322Z,4.03
2023-03-23T16:10:27.413Z,4.97
2023-03-23T16:12:55.002Z,8.50
2023-03-23T16:15:22.567Z,5.32
2023-03-23T16:17:50.805Z,6.28
2023-03-23T16:20:23.597Z,6.03
2023-03-23T16:22:52.986Z,5.68
2023-03-23T16:25:22.184Z,4.90
2023-03-23T16:27:52.608Z,4.60
2023-03-23T16:30:20.734Z,5.45
2023-03-23T16:32:48.722Z,4.90
2023-03-23T16:35:17.265Z,3.77
2023-03-23T16:37:49.922Z,5.53
2023-03-23T16:40:18.526Z,4.30
2023-03-23T16:42:47.252Z,5.20
2023-03-23T16:45:15.737Z,6.68
2023-03-23T16:47:46.386Z,4.40
2023-03-23T16:50:17.306Z,5.07
2023-03-23T16:52:47.806Z,5.67
2023-03-23T16:55:17.690Z,3.27
2023-03-23T16:57:45.729Z,7.20
2023-03-23T17:00:22.293Z,5.60
2023-03-23T17:02:52.623Z,6.15
2023-03-23T17:05:23.722Z,5.03
2023-03-23T17:07:52.566Z,6.83
2023-03-23T17:10:20.418Z,6.17
2023-03-23T17:12:49.124Z,6.63
2023-03-23T17:15:18.001Z,7.23
2023-03-23T17:17:47.515Z,4.83
2023-03-23T17:20:17.174Z,4.72
2023-03-23T17:22:44.981Z,6.43
2023-03-23T17:25:14.005Z,9.57
2023-03-23T17:27:44.034Z,6.43
2023-03-23T17:30:12.676Z,7.77
2023-03-23T17:32:40.628Z,7.80
2023-03-23T17:35:08.697Z,5.83
2023-03-23T17:37:38.774Z,7.10
2023-03-23T17:40:10.351Z,4.60
2023-03-23T17:42:38.502Z,10.17
2023-03-23T17:45:09.069Z,6.60
2023-03-23T17:47:38.200Z,6.77
2023-03-23T17:50:11.791Z,7.23
2023-03-23T17:52:43.773Z,8.40
2023-03-23T17:55:13.013Z,7.20
2023-03-23T17:57:43.283Z,6.37
2023-03-23T18:00:13.640Z,5.77
2023-03-23T18:02:41.927Z,10.27
2023-03-23T18:05:11.001Z,6.80
2023-03-23T18:07:39.881Z,6.57
2023-03-23T18:10:13.449Z,7.57
2023-03-23T18:12:44.207Z,7.37
2023-03-23T18:15:13.325Z,9.30
2023-03-23T18:17:43.982Z,7.77
2023-03-23T18:20:12.087Z,11.10
2023-03-23T18:22:40.567Z,6.47
2023-03-23T18:25:09.386Z,7.63
2023-03-23T18:27:39.675Z,10.47
2023-03-23T18:30:09.668Z,8.73
2023-03-23T18:32:39.642Z,9.67
2023-03-23T18:35:10.067Z,8.93
2023-03-23T18:38:35.335Z,11.70
2023-03-23T18:41:42.154Z,11.53
2023-03-23T18:44:12.082Z,10.47
2023-03-23T18:46:39.712Z,10.87
2023-03-23T18:49:07.786Z,7.87
2023-03-23T18:51:37.886Z,7.80
2023-03-23T18:54:06.872Z,8.27
2023-03-23T18:56:35.614Z,6.33
2023-03-23T18:59:06.214Z,6.97
2023-03-23T19:01:34.864Z,8.03
2023-03-23T19:04:06.845Z,6.93
2023-03-23T19:06:35.301Z,4.80
2023-03-23T19:09:04.213Z,5.77
2023-03-23T19:11:31.912Z,8.50
2023-03-23T19:14:03.070Z,9.60
2023-03-23T19:16:34.225Z,7.63
2023-03-23T19:19:03.151Z,7.83
2023-03-23T19:21:33.156Z,9.80
2023-03-23T19:24:03.023Z,8.57
2023-03-23T19:26:36.876Z,14.67
2023-03-23T19:29:25.914Z,38.77
2023-03-23T19:31:57.304Z,23.60
2023-03-23T19:34:29.027Z,25.37
2023-03-23T19:37:05.253Z,15.43
2023-03-23T19:39:34.433Z,18.33
2023-03-23T19:42:01.976Z,25.20
2023-03-23T19:44:31.073Z,27.27
2023-03-23T19:47:00.705Z,43.63
2023-03-23T19:49:31.125Z,36.53
2023-03-23T19:52:06.519Z,26.37
2023-03-23T19:54:39.934Z,20.73
2023-03-23T19:57:11.356Z,20.63
2023-03-23T19:59:42.244Z,7.00
2023-03-23T20:02:14.972Z,20.40
2023-03-23T20:04:45.982Z,21.90
2023-03-23T20:07:16.791Z,20.03
2023-03-23T20:09:46.041Z,17.53
2023-03-23T20:12:14.703Z,7.53
2023-03-23T20:14:45.036Z,11.03
2023-03-23T20:17:14.600Z,16.40
2023-03-23T20:19:44.592Z,17.73
2023-03-23T20:22:15.974Z,22.53
2023-03-23T20:24:49.500Z,24.33
2023-03-23T20:27:18.511Z,21.43
2023-03-23T20:29:47.622Z,23.10
2023-03-23T20:32:16.661Z,17.77
2023-03-23T20:34:49.316Z,16.20
2023-03-23T20:37:21.181Z,20.73
2023-03-23T20:39:49.724Z,24.90
2023-03-23T20:42:18.273Z,26.60
2023-03-23T20:44:48.145Z,93.60
2023-03-23T20:47:16.154Z,81.57
2023-03-23T20:49:53.201Z,132.63
2023-03-23T20:52:23.190Z,142.13
2023-03-23T20:54:51.144Z,67.93
2023-03-23T20:57:21.684Z,45.93
2023-03-23T20:59:55.508Z,73.27
2023-03-23T21:02:26.695Z,67.87
2023-03-23T21:04:59.131Z,45.37
2023-03-23T21:07:29.448Z,54.10
2023-03-23T21:09:59.479Z,33.17
2023-03-23T21:12:29.040Z,30.13
2023-03-23T21:14:58.475Z,39.27
2023-03-23T21:17:25.592Z,59.07
2023-03-23T21:19:54.617Z,56.83
2023-03-23T21:22:22.734Z,56.67
2023-03-23T21:24:53.740Z,57.37
2023-03-23T21:27:22.387Z,55.33
2023-03-23T21:29:51.554Z,61.33
2023-03-23T21:32:20.154Z,53.67
2023-03-23T21:34:48.855Z,47.43
2023-03-23T21:37:18.191Z,50.87
2023-03-23T21:39:47.016Z,45.50
2023-03-23T21:42:15.297Z,43.10
2023-03-23T21:44:42.975Z,37.93
2023-03-23T21:47:13.150Z,36.47
2023-03-23T21:49:40.983Z,32.50
2023-03-23T21:52:10.033Z,30.07
2023-03-23T21:54:38.667Z,23.83
2023-03-23T21:57:06.481Z,14.90
2023-03-23T21:59:34.120Z,18.17
2023-03-23T22:02:02.217Z,21.97
2023-03-23T22:04:29.707Z,28.03
2023-03-23T22:06:57.150Z,30.50
2023-03-23T22:09:25.764Z,26.30
2023-03-23T22:11:54.012Z,45.10
2023-03-23T22:14:22.695Z,70.73
2023-03-23T22:16:52.326Z,90.03
2023-03-23T22:19:22.336Z,120.17
2023-03-23T22:21:50.572Z,62.77
2023-03-23T22:24:18.924Z,67.10
2023-03-23T22:26:47.336Z,55.67
2023-03-23T22:29:17.872Z,34.07
2023-03-23T22:31:48.007Z,38.60
2023-03-23T22:34:18.669Z,57.13
2023-03-23T22:36:46.902Z,52.63
2023-03-23T22:39:14.401Z,47.93
2023-03-23T22:41:42.701Z,38.53
2023-03-23T22:44:14.102Z,24.87
2023-03-23T22:46:43.406Z,30.73
2023-03-23T22:49:13.698Z,18.50
2023-03-23T22:51:41.811Z,17.83
2023-03-23T22:54:11.081Z,16.47
2023-03-23T22:56:41.395Z,14.37
2023-03-23T22:59:11.154Z,16.73
2023-03-23T23:01:38.681Z,15.87
2023-03-23T23:04:06.680Z,16.27
2023-03-23T23:06:34.991Z,13.07
2023-03-23T23:09:04.683Z,11.23
2023-03-23T23:11:32.343Z,7.77
2023-03-23T23:14:02.353Z,10.07
2023-03-23T23:16:31.192Z,9.30
2023-03-23T23:18:58.796Z,9.57
2023-03-23T23:21:27.288Z,8.83
2023-03-23T23:23:56.158Z,7.77
2023-03-23T23:26:23.916Z,8.60
2023-03-23T23:28:52.921Z,5.27
2023-03-23T23:31:27.532Z,5.53
2023-03-23T23:33:58.107Z,8.67
2023-03-23T23:36:30.562Z,6.87
2023-03-23T23:39:02.408Z,10.07
2023-03-23T23:41:30.939Z,6.90
2023-03-23T23:44:00.582Z,6.10
2023-03-23T23:46:31.542Z,10.43
2023-03-23T23:49:02.492Z,9.90
2023-03-23T23:51:33.851Z,4.53
2023-03-23T23:54:02.874Z,15.67
2023-03-23T23:56:31.800Z,24.10
2023-03-23T23:59:00.433Z,7.50
